createdAt,value
2022-09-23T00:01:31.417Z,9.23
2022-09-23T00:03:58.968Z,10.48
2022-09-23T00:06:26.979Z,9.93
2022-09-23T00:08:54.438Z,9.48
2022-09-23T00:11:24.719Z,9.43
2022-09-23T00:13:54.468Z,9.25
2022-09-23T00:16:23.345Z,9.50
2022-09-23T00:18:50.301Z,9.73
2022-09-23T00:21:19.312Z,9.93
2022-09-23T00:23:46.047Z,10.20
2022-09-23T00:26:15.320Z,10.02
2022-09-23T00:28:44.459Z,9.73
2022-09-23T00:31:14.570Z,9.52
2022-09-23T00:33:41.513Z,9.68
2022-09-23T00:36:11.293Z,9.68
2022-09-23T00:38:38.584Z,10.00
2022-09-23T00:41:05.946Z,10.10
2022-09-23T00:43:39.002Z,10.25
2022-09-23T00:46:08.872Z,9.70
2022-09-23T00:48:39.013Z,9.85
2022-09-23T00:51:09.199Z,8.93
2022-09-23T00:53:36.907Z,9.27
2022-09-23T00:56:06.263Z,9.63
2022-09-23T00:58:35.619Z,9.52
2022-09-23T01:01:03.956Z,10.50
2022-09-23T01:03:32.291Z,10.13
2022-09-23T01:05:59.539Z,10.35
2022-09-23T01:08:28.663Z,10.73
2022-09-23T01:11:02.695Z,9.77
2022-09-23T01:13:40.769Z,9.45
2022-09-23T01:16:15.914Z,9.10
2022-09-23T01:18:51.353Z,10.38
2022-09-23T01:21:34.572Z,9.48
2022-09-23T01:24:41.749Z,9.50
2022-09-23T01:27:29.281Z,9.38
2022-09-23T01:30:31.296Z,9.50
2022-09-23T01:33:05.117Z,9.60
2022-09-23T01:35:45.634Z,10.15
2022-09-23T01:38:23.780Z,9.73
2022-09-23T01:41:00.828Z,10.23
2022-09-23T01:43:36.717Z,9.35
2022-09-23T01:46:09.045Z,10.55
2022-09-23T01:48:41.466Z,9.48
2022-09-23T01:51:13.498Z,10.88
2022-09-23T01:53:45.860Z,10.27
2022-09-23T01:56:19.998Z,10.13
2022-09-23T01:58:54.021Z,10.20
2022-09-23T02:01:31.083Z,10.00
2022-09-23T02:04:03.630Z,11.20
2022-09-23T02:06:36.045Z,10.45
2022-09-23T02:09:07.620Z,10.35
2022-09-23T02:11:36.666Z,10.93
2022-09-23T02:14:09.413Z,11.25
2022-09-23T02:16:41.217Z,11.88
2022-09-23T02:19:13.341Z,10.90
2022-09-23T02:21:44.122Z,11.43
2022-09-23T02:24:16.538Z,12.30
2022-09-23T02:26:49.754Z,11.07
2022-09-23T02:29:21.147Z,12.52
2022-09-23T02:32:02.524Z,11.43
2022-09-23T02:34:42.531Z,11.65
2022-09-23T02:37:23.579Z,11.02
2022-09-23T02:39:57.430Z,11.00
2022-09-23T02:42:31.066Z,11.65
2022-09-23T02:44:57.840Z,11.23
2022-09-23T02:47:30.293Z,11.43
2022-09-23T02:49:58.447Z,11.75
2022-09-23T02:52:26.836Z,11.43
2022-09-23T02:54:55.949Z,12.10
2022-09-23T02:57:22.799Z,11.00
2022-09-23T02:59:50.199Z,11.70
2022-09-23T03:02:32.541Z,11.48
2022-09-23T03:05:10.355Z,11.45
2022-09-23T03:07:48.649Z,12.05
2022-09-23T03:10:22.428Z,12.05
2022-09-23T03:12:59.727Z,10.80
2022-09-23T03:15:34.856Z,11.40
2022-09-23T03:18:10.635Z,12.25
2022-09-23T03:20:45.512Z,12.23
2022-09-23T03:23:15.348Z,11.90
2022-09-23T03:25:45.099Z,11.57
2022-09-23T03:30:40.005Z,10.35
2022-09-23T03:33:10.859Z,11.82
2022-09-23T03:35:46.723Z,10.80
2022-09-23T03:38:16.192Z,12.48
2022-09-23T03:40:46.118Z,12.90
2022-09-23T03:43:13.976Z,11.50
2022-09-23T03:45:41.378Z,12.40
2022-09-23T03:48:08.695Z,13.45
2022-09-23T03:50:36.070Z,11.93
2022-09-23T03:53:04.153Z,12.50
2022-09-23T03:55:30.944Z,13.18
2022-09-23T03:57:58.272Z,12.55
2022-09-23T04:00:25.049Z,12.35
2022-09-23T04:02:51.870Z,12.05
2022-09-23T04:05:19.278Z,12.90
2022-09-23T04:07:46.030Z,12.23
2022-09-23T04:10:14.097Z,12.32
2022-09-23T04:12:41.429Z,12.13
2022-09-23T04:15:08.828Z,12.10
2022-09-23T04:17:35.808Z,12.32
2022-09-23T04:20:04.127Z,12.23
2022-09-23T04:22:32.375Z,12.50
2022-09-23T04:24:59.126Z,12.70
2022-09-23T04:27:27.858Z,12.73
2022-09-23T04:29:55.271Z,12.68
2022-09-23T04:32:22.024Z,12.27
2022-09-23T04:34:48.772Z,12.40
2022-09-23T04:37:16.133Z,11.65
2022-09-23T04:39:42.858Z,12.02
2022-09-23T04:42:09.606Z,12.40
2022-09-23T04:44:38.285Z,10.65
2022-09-23T04:47:05.362Z,11.70
2022-09-23T04:49:32.122Z,12.68
2022-09-23T04:51:59.538Z,8.88
2022-09-23T04:54:26.443Z,11.40
2022-09-23T04:56:53.167Z,12.27
2022-09-23T04:59:20.495Z,11.00
2022-09-23T05:01:48.799Z,10.48
2022-09-23T05:04:15.623Z,11.35
2022-09-23T05:06:43.257Z,11.63
2022-09-23T05:09:14.232Z,12.00
2022-09-23T05:11:40.982Z,11.50
2022-09-23T05:14:08.332Z,12.25
2022-09-23T05:16:35.181Z,12.13
2022-09-23T05:19:03.578Z,11.27
2022-09-23T05:21:30.911Z,10.90
2022-09-23T05:23:58.339Z,10.30
2022-09-23T05:26:27.032Z,12.05
2022-09-23T05:28:54.711Z,11.43
2022-09-23T05:31:23.338Z,11.88
2022-09-23T05:33:51.861Z,11.65
2022-09-23T05:36:21.690Z,11.20
2022-09-23T05:38:49.033Z,11.07
2022-09-23T05:41:17.172Z,10.85
2022-09-23T05:43:44.579Z,10.80
2022-09-23T05:46:13.109Z,10.38
2022-09-23T05:48:41.126Z,10.15
2022-09-23T05:51:11.346Z,10.75
2022-09-23T05:53:40.344Z,9.05
2022-09-23T05:56:07.298Z,10.18
2022-09-23T05:58:34.661Z,9.40
2022-09-23T06:01:01.446Z,10.90
2022-09-23T06:03:28.316Z,9.45
2022-09-23T06:05:56.077Z,9.88
2022-09-23T06:08:23.341Z,9.30
2022-09-23T06:10:54.381Z,7.70
2022-09-23T06:13:22.001Z,10.05
2022-09-23T06:15:48.775Z,10.48
2022-09-23T06:18:15.539Z,10.80
2022-09-23T06:20:46.082Z,10.57
2022-09-23T06:23:14.743Z,9.95
2022-09-23T06:25:41.478Z,9.25
2022-09-23T06:28:10.151Z,9.23
2022-09-23T06:30:36.920Z,10.27
2022-09-23T06:33:03.689Z,9.40
2022-09-23T06:35:31.438Z,9.32
2022-09-23T06:37:58.572Z,10.73
2022-09-23T06:40:25.407Z,8.85
2022-09-23T06:42:57.924Z,10.18
2022-09-23T06:45:27.249Z,9.10
2022-09-23T06:47:55.551Z,10.50
2022-09-23T06:50:22.910Z,8.55
2022-09-23T06:52:51.836Z,9.85
2022-09-23T06:55:19.155Z,10.40
2022-09-23T06:57:45.960Z,8.90
2022-09-23T07:00:13.688Z,9.95
2022-09-23T07:02:42.535Z,8.90
2022-09-23T07:05:09.554Z,9.67
2022-09-23T07:07:36.347Z,10.20
2022-09-23T07:10:10.804Z,9.68
2022-09-23T07:12:37.896Z,9.77
2022-09-23T07:15:06.693Z,13.25
2022-09-23T07:17:35.735Z,9.68
2022-09-23T07:20:04.585Z,10.48
2022-09-23T07:22:31.970Z,10.57
2022-09-23T07:25:00.744Z,10.13
2022-09-23T07:27:28.073Z,10.77
2022-09-23T07:29:56.798Z,8.25
2022-09-23T07:32:26.678Z,11.07
2022-09-23T07:34:53.831Z,10.98
2022-09-23T07:37:22.840Z,11.00
2022-09-23T07:39:49.568Z,11.13
2022-09-23T07:42:16.399Z,10.68
2022-09-23T07:44:43.767Z,9.68
2022-09-23T07:47:10.958Z,9.88
2022-09-23T07:49:37.698Z,11.18
2022-09-23T07:52:05.438Z,9.55
2022-09-23T07:54:33.566Z,10.40
2022-09-23T07:57:00.366Z,10.30
2022-09-23T07:59:27.770Z,9.93
2022-09-23T08:01:55.279Z,9.77
2022-09-23T08:04:24.183Z,8.57
2022-09-23T08:06:53.943Z,8.77
2022-09-23T08:09:23.353Z,9.38
2022-09-23T08:11:52.211Z,8.65
2022-09-23T08:14:20.099Z,10.23
2022-09-23T08:16:47.896Z,10.02
2022-09-23T08:19:15.486Z,8.80
2022-09-23T08:21:43.865Z,9.02
2022-09-23T08:24:13.931Z,9.07
2022-09-23T08:26:40.724Z,6.80
2022-09-23T08:29:11.869Z,9.70
2022-09-23T08:31:38.661Z,9.43
2022-09-23T08:34:05.528Z,9.73
2022-09-23T08:36:33.490Z,8.13
2022-09-23T08:39:00.437Z,8.60
2022-09-23T08:41:38.335Z,7.13
2022-09-23T08:44:14.388Z,9.48
2022-09-23T08:46:45.920Z,8.30
2022-09-23T08:49:18.444Z,8.63
2022-09-23T08:51:47.319Z,9.05
2022-09-23T08:54:17.614Z,9.00
2022-09-23T08:56:46.683Z,8.70
2022-09-23T08:59:23.274Z,9.98
2022-09-23T09:01:53.375Z,8.10
2022-09-23T09:04:23.922Z,8.20
2022-09-23T09:07:12.430Z,8.95
2022-09-23T09:09:48.779Z,9.50
2022-09-23T09:12:18.816Z,9.13
2022-09-23T09:14:54.511Z,8.38
2022-09-23T09:17:35.106Z,10.13
2022-09-23T09:20:07.424Z,8.95
2022-09-23T09:22:45.456Z,9.00
2022-09-23T09:25:23.313Z,8.48
2022-09-23T09:27:51.739Z,8.00
2022-09-23T09:30:20.169Z,9.70
2022-09-23T09:32:52.100Z,9.65
2022-09-23T09:35:26.937Z,7.47
2022-09-23T09:37:53.752Z,7.53
2022-09-23T09:40:21.331Z,9.60
2022-09-23T09:42:49.983Z,7.53
2022-09-23T09:45:25.938Z,8.23
2022-09-23T09:48:00.922Z,7.88
2022-09-23T09:50:46.540Z,8.70
2022-09-23T09:53:21.458Z,7.45
2022-09-23T09:56:04.945Z,8.07
2022-09-23T09:58:38.529Z,7.35
2022-09-23T10:01:07.256Z,8.30
2022-09-23T10:03:39.471Z,8.45
2022-09-23T10:06:19.269Z,8.43
2022-09-23T10:09:09.574Z,7.43
2022-09-23T10:11:37.392Z,8.23
2022-09-23T10:14:10.653Z,9.88
2022-09-23T10:16:40.170Z,9.38
2022-09-23T10:19:15.490Z,9.05
2022-09-23T10:21:42.843Z,9.00
2022-09-23T10:24:21.963Z,9.47
2022-09-23T10:26:55.351Z,8.50
2022-09-23T10:29:24.923Z,8.20
2022-09-23T10:32:17.880Z,8.23
2022-09-23T10:34:48.502Z,7.88
2022-09-23T10:37:18.291Z,8.52
2022-09-23T10:39:45.721Z,8.90
2022-09-23T10:42:21.234Z,8.23
2022-09-23T10:45:05.344Z,7.10
2022-09-23T10:47:42.025Z,8.18
2022-09-23T10:50:28.216Z,8.13
2022-09-23T10:53:04.234Z,7.88
2022-09-23T10:55:40.659Z,6.95
2022-09-23T10:58:42.334Z,7.50
2022-09-23T11:01:26.548Z,7.60
2022-09-23T11:04:31.040Z,7.70
2022-09-23T11:07:11.877Z,6.65
2022-09-23T11:09:50.249Z,7.55
2022-09-23T11:12:25.632Z,7.35
2022-09-23T11:15:09.006Z,7.20
2022-09-23T11:18:07.292Z,7.90
2022-09-23T11:20:45.297Z,6.53
2022-09-23T11:23:32.187Z,6.10
2022-09-23T11:26:08.341Z,6.88
2022-09-23T11:29:04.964Z,5.75
2022-09-23T11:31:39.701Z,7.82
2022-09-23T11:34:22.834Z,6.50
2022-09-23T11:36:56.521Z,6.13
2022-09-23T11:39:28.290Z,5.57
2022-09-23T11:41:58.613Z,6.25
2022-09-23T11:44:31.140Z,4.10
2022-09-23T11:47:03.159Z,5.72
2022-09-23T11:49:34.928Z,5.82
2022-09-23T11:52:12.206Z,6.07
2022-09-23T11:54:45.763Z,5.23
2022-09-23T11:57:19.247Z,5.88
2022-09-23T11:59:51.741Z,6.72
2022-09-23T12:02:29.605Z,5.93
2022-09-23T12:05:03.666Z,5.63
2022-09-23T12:07:42.948Z,6.00
2022-09-23T12:10:11.940Z,5.35
2022-09-23T12:12:46.991Z,4.95
2022-09-23T12:15:28.491Z,5.60
2022-09-23T12:18:19.626Z,4.68
2022-09-23T12:21:05.665Z,4.85
2022-09-23T12:23:53.130Z,5.60
2022-09-23T12:26:23.581Z,5.88
2022-09-23T12:28:54.136Z,5.65
2022-09-23T12:31:24.743Z,5.60
2022-09-23T12:33:53.609Z,5.30
2022-09-23T12:38:57.656Z,4.50
2022-09-23T12:41:30.595Z,4.05
2022-09-23T12:44:00.540Z,4.60
2022-09-23T12:46:27.720Z,4.60
2022-09-23T12:49:02.626Z,4.30
2022-09-23T12:51:32.586Z,3.60
2022-09-23T12:54:21.256Z,3.38
2022-09-23T12:57:03.847Z,4.43
2022-09-23T12:59:55.651Z,4.10
2022-09-23T13:02:35.385Z,4.07
2022-09-23T13:05:16.945Z,3.42
2022-09-23T13:07:48.521Z,3.33
2022-09-23T13:10:24.380Z,3.50
2022-09-23T13:12:52.448Z,3.30
2022-09-23T13:15:28.062Z,4.03
2022-09-23T13:18:23.189Z,3.80
2022-09-23T13:20:51.922Z,2.83
2022-09-23T13:23:22.120Z,4.15
2022-09-23T13:25:52.499Z,2.90
2022-09-23T13:28:28.159Z,2.80
2022-09-23T13:30:55.387Z,3.63
2022-09-23T13:33:29.537Z,4.00
2022-09-23T13:36:01.878Z,2.92
2022-09-23T13:38:30.187Z,3.65
2022-09-23T13:41:00.382Z,4.15
2022-09-23T13:43:29.565Z,4.10
2022-09-23T13:45:57.359Z,4.68
2022-09-23T13:48:28.623Z,4.00
2022-09-23T13:50:55.652Z,4.05
2022-09-23T13:53:27.666Z,4.28
2022-09-23T13:56:05.069Z,3.25
2022-09-23T13:58:34.065Z,2.97
2022-09-23T14:01:02.106Z,4.95
2022-09-23T14:03:36.898Z,4.43
2022-09-23T14:06:07.375Z,4.85
2022-09-23T14:08:34.971Z,4.90
2022-09-23T14:11:03.580Z,4.70
2022-09-23T14:13:37.417Z,4.35
2022-09-23T14:16:05.174Z,5.25
2022-09-23T14:18:38.736Z,3.63
2022-09-23T14:21:26.628Z,5.22
2022-09-23T14:23:53.408Z,4.85
2022-09-23T14:26:23.663Z,5.10
2022-09-23T14:28:50.684Z,4.40
2022-09-23T14:31:17.686Z,5.55
2022-09-23T14:33:45.566Z,4.45
2022-09-23T14:36:15.156Z,4.68
2022-09-23T14:38:42.022Z,5.18
2022-09-23T14:41:20.753Z,4.25
2022-09-23T14:43:59.728Z,4.75
2022-09-23T14:46:29.205Z,5.38
2022-09-23T14:51:42.987Z,4.25
2022-09-23T14:54:44.286Z,5.47
2022-09-23T14:57:33.052Z,3.78
2022-09-23T15:00:14.097Z,4.32
2022-09-23T15:02:44.350Z,5.20
2022-09-23T15:05:16.968Z,5.47
2022-09-23T15:07:48.586Z,5.20
2022-09-23T15:10:22.485Z,5.32
2022-09-23T15:12:50.456Z,4.35
2022-09-23T15:15:21.169Z,5.00
2022-09-23T15:17:48.073Z,3.67
2022-09-23T15:20:22.568Z,5.32
2022-09-23T15:22:54.526Z,5.03
2022-09-23T15:25:24.934Z,4.88
2022-09-23T15:28:04.122Z,5.05
2022-09-23T15:30:35.021Z,5.28
2022-09-23T15:33:06.113Z,5.45
2022-09-23T15:35:33.366Z,5.43
2022-09-23T15:38:02.498Z,5.05
2022-09-23T15:40:34.981Z,5.40
2022-09-23T15:43:17.990Z,5.40
2022-09-23T15:45:54.534Z,5.70
2022-09-23T15:48:27.180Z,5.93
2022-09-23T15:50:55.218Z,5.38
2022-09-23T15:53:23.736Z,6.22
2022-09-23T15:55:50.598Z,6.05
2022-09-23T15:58:19.560Z,5.78
2022-09-23T16:00:46.576Z,6.85
2022-09-23T16:03:15.100Z,7.15
2022-09-23T16:05:43.986Z,6.82
2022-09-23T16:08:16.906Z,7.38
2022-09-23T16:10:44.280Z,6.88
2022-09-23T16:13:14.089Z,7.10
2022-09-23T16:15:41.485Z,7.80
2022-09-23T16:18:09.927Z,7.90
2022-09-23T16:20:39.497Z,8.82
2022-09-23T16:23:13.675Z,10.00
2022-09-23T16:25:43.232Z,11.93
2022-09-23T16:30:36.880Z,16.67
2022-09-23T16:33:07.194Z,14.25
2022-09-23T16:35:34.122Z,14.20
2022-09-23T16:38:02.201Z,12.68
2022-09-23T16:40:30.770Z,13.35
2022-09-23T16:42:57.569Z,10.45
2022-09-23T16:45:24.430Z,9.77
2022-09-23T16:47:53.937Z,10.00
2022-09-23T16:52:48.856Z,9.52
2022-09-23T16:55:19.532Z,9.18
2022-09-23T16:57:46.265Z,9.25
2022-09-23T17:00:15.138Z,10.05
2022-09-23T17:02:42.597Z,9.63
2022-09-23T17:05:14.582Z,10.50
2022-09-23T17:07:43.618Z,10.60
2022-09-23T17:10:11.026Z,10.30
2022-09-23T17:12:39.187Z,9.93
2022-09-23T17:15:07.152Z,10.98
2022-09-23T17:17:36.603Z,11.32
2022-09-23T17:20:04.348Z,11.80
2022-09-23T17:22:34.264Z,10.80
2022-09-23T17:25:01.832Z,10.43
2022-09-23T17:27:28.608Z,10.30
2022-09-23T17:29:56.698Z,12.27
2022-09-23T17:32:25.876Z,12.43
2022-09-23T17:34:52.940Z,12.52
2022-09-23T17:37:22.506Z,12.75
2022-09-23T17:39:53.674Z,14.90
2022-09-23T17:42:23.177Z,14.43
2022-09-23T17:44:50.525Z,12.48
2022-09-23T17:47:18.833Z,11.80
2022-09-23T17:49:45.566Z,13.32
2022-09-23T17:52:12.936Z,11.00
2022-09-23T17:54:39.695Z,12.57
2022-09-23T17:57:06.745Z,12.18
2022-09-23T17:59:34.270Z,11.73
2022-09-23T18:02:01.053Z,13.07
2022-09-23T18:04:32.571Z,13.25
2022-09-23T18:07:00.011Z,12.80
2022-09-23T18:09:27.538Z,13.63
2022-09-23T18:11:54.261Z,13.07
2022-09-23T18:14:22.580Z,13.00
2022-09-23T18:16:51.449Z,13.27
2022-09-23T18:19:19.510Z,12.07
2022-09-23T18:21:51.349Z,13.02
2022-09-23T18:24:31.942Z,13.40
2022-09-23T18:27:00.486Z,13.30
2022-09-23T18:29:27.543Z,14.23
2022-09-23T18:31:54.521Z,13.65
2022-09-23T18:34:22.112Z,10.88
2022-09-23T18:36:50.301Z,13.20
2022-09-23T18:39:19.689Z,12.88
2022-09-23T18:41:47.032Z,14.27
2022-09-23T18:44:16.839Z,14.85
2022-09-23T18:46:43.579Z,10.80
2022-09-23T18:49:11.482Z,14.07
2022-09-23T18:51:47.850Z,15.23
2022-09-23T18:54:17.067Z,14.23
2022-09-23T18:56:47.353Z,15.05
2022-09-23T18:59:24.635Z,13.00
2022-09-23T19:01:52.333Z,15.88
2022-09-23T19:04:21.419Z,14.60
2022-09-23T19:06:48.449Z,15.98
2022-09-23T19:09:17.557Z,16.38
2022-09-23T19:11:46.232Z,15.38
2022-09-23T19:14:15.923Z,15.57
2022-09-23T19:16:42.962Z,15.10
2022-09-23T19:19:10.317Z,16.27
2022-09-23T19:21:37.099Z,14.20
2022-09-23T19:24:06.129Z,14.07
2022-09-23T19:26:36.566Z,16.83
2022-09-23T19:29:05.008Z,14.55
2022-09-23T19:31:34.045Z,15.70
2022-09-23T19:34:04.200Z,17.77
2022-09-23T19:36:32.256Z,17.70
2022-09-23T19:39:00.659Z,18.45
2022-09-23T19:43:56.463Z,16.58
2022-09-23T19:46:23.254Z,17.30
2022-09-23T19:48:50.673Z,17.75
2022-09-23T19:51:17.400Z,16.55
2022-09-23T19:53:44.184Z,17.67
2022-09-23T19:56:12.467Z,15.15
2022-09-23T19:58:39.191Z,15.50
2022-09-23T20:01:08.269Z,16.20
2022-09-23T20:03:35.678Z,17.70
2022-09-23T20:06:02.411Z,16.10
2022-09-23T20:08:29.153Z,13.27
2022-09-23T20:10:56.563Z,16.70
2022-09-23T20:13:23.524Z,16.13
2022-09-23T20:15:50.347Z,15.82
2022-09-23T20:18:19.067Z,14.55
2022-09-23T20:20:53.779Z,14.70
2022-09-23T20:23:21.179Z,13.40
2022-09-23T20:25:55.558Z,16.77
2022-09-23T20:28:22.889Z,15.45
2022-09-23T20:30:49.736Z,17.05
2022-09-23T20:33:16.472Z,16.33
2022-09-23T20:35:50.712Z,17.08
2022-09-23T20:38:17.454Z,15.57
2022-09-23T20:40:44.895Z,14.18
2022-09-23T20:43:11.651Z,19.83
2022-09-23T20:45:38.397Z,18.40
2022-09-23T20:48:05.731Z,17.60
2022-09-23T20:50:32.455Z,16.13
2022-09-23T20:53:00.499Z,17.13
2022-09-23T20:55:27.814Z,18.30
2022-09-23T20:57:54.529Z,17.42
2022-09-23T21:00:21.294Z,17.15
2022-09-23T21:02:48.637Z,18.58
2022-09-23T21:05:15.577Z,18.92
2022-09-23T21:07:42.311Z,17.35
2022-09-23T21:10:11.089Z,15.68
2022-09-23T21:12:38.054Z,17.02
2022-09-23T21:15:05.600Z,17.40
2022-09-23T21:17:32.989Z,16.85
2022-09-23T21:19:59.739Z,14.88
2022-09-23T21:22:26.490Z,15.38
2022-09-23T21:25:26.498Z,17.50
2022-09-23T21:27:41.887Z,17.80
2022-09-23T21:30:10.921Z,18.95
2022-09-23T21:32:37.654Z,19.55
2022-09-23T21:35:04.918Z,18.48
2022-09-23T21:37:32.316Z,18.83
2022-09-23T21:39:59.036Z,17.92
2022-09-23T21:42:25.773Z,19.40
2022-09-23T21:44:54.589Z,17.48
2022-09-23T21:47:21.317Z,22.58
2022-09-23T21:49:50.777Z,18.80
2022-09-23T21:52:18.465Z,21.48
2022-09-23T21:54:45.197Z,21.15
2022-09-23T21:57:11.942Z,21.35
2022-09-23T21:59:39.267Z,16.65
2022-09-23T22:02:07.344Z,21.75
2022-09-23T22:04:34.192Z,17.40
2022-09-23T22:07:01.621Z,16.73
2022-09-23T22:09:28.612Z,18.40
2022-09-23T22:11:55.345Z,18.48
2022-09-23T22:14:23.641Z,17.20
2022-09-23T22:16:50.635Z,21.40
2022-09-23T22:19:18.728Z,19.65
2022-09-23T22:21:46.124Z,19.58
2022-09-23T22:24:13.391Z,22.25
2022-09-23T22:26:41.863Z,20.35
2022-09-23T22:29:11.767Z,22.63
2022-09-23T22:31:38.649Z,18.65
2022-09-23T22:34:05.658Z,20.65
2022-09-23T22:36:34.339Z,23.15
2022-09-23T22:39:04.400Z,21.93
2022-09-23T22:41:31.351Z,22.17
2022-09-23T22:43:58.802Z,20.50
2022-09-23T22:46:25.786Z,20.23
2022-09-23T22:48:52.511Z,23.40
2022-09-23T22:51:20.125Z,20.33
2022-09-23T22:53:48.271Z,23.73
2022-09-23T22:56:15.295Z,14.73
2022-09-23T22:58:42.728Z,21.30
2022-09-23T23:01:09.552Z,22.55
2022-09-23T23:03:36.531Z,22.15
2022-09-23T23:06:04.519Z,17.92
2022-09-23T23:08:31.479Z,22.98
2022-09-23T23:11:04.102Z,19.63
2022-09-23T23:13:32.176Z,23.15
2022-09-23T23:15:58.972Z,21.00
2022-09-23T23:18:30.874Z,22.75
2022-09-23T23:21:05.574Z,15.32
2022-09-23T23:23:32.310Z,18.40
2022-09-23T23:26:09.867Z,16.08
2022-09-23T23:28:36.796Z,21.30
2022-09-23T23:31:04.782Z,24.05
2022-09-23T23:33:31.864Z,15.43
2022-09-23T23:35:58.635Z,23.05
2022-09-23T23:38:26.328Z,23.60
2022-09-23T23:40:53.166Z,20.55
2022-09-23T23:43:21.593Z,23.90
2022-09-23T23:48:15.562Z,20.58
2022-09-23T23:50:42.264Z,21.50
2022-09-23T23:53:09.657Z,22.45
2022-09-23T23:55:37.718Z,19.02
2022-09-23T23:58:04.478Z,19.17
